8W2

New Market Airport

New Market, Virginia, USA
METAR K8W2 181115Z AUTO 00000KT 1 1/4SM BKN002 OVC050 M01/M02 A3002 RMK AO1 T10121017
Observed Flight Rules
Jan-18 @ 11:15 UTC (28 minutes ago) Instrument Flight Rules
Visibility Clouds
1 1/4 miles
  • Broken at 200' AGL
  • Overcast at 5,000' AGL
Temperatures Readings
Current -1°C / 30°F
Dewpoint -2°C / 28°F
Humidity 93%
Altimeter 30.02" Hg
Pressure 1016.62 hPa
Elevation 297
METAR K8W2 181115Z AUTO 00000KT 1 1/4SM BKN002 OVC050 M01/M02 A3002 RMK AO1 T10121017
Observed Flight Rules
Jan-18 @ 11:15 UTC
(28 minutes ago)
LIFR
Clouds
  • Broken at 200' AGL
  • Overcast at 5,000' AGL
Temperature Dewpoint
-1°C / 30°F -2°C / 28°F
Humidity Altimeter Pressure
93% 30.02" Hg 1016.62 hPa